createdAt,value
2022-10-28T00:01:25.040Z,26.30
2022-10-28T00:03:58.953Z,27.85
2022-10-28T00:06:31.217Z,32.58
2022-10-28T00:08:59.080Z,31.05
2022-10-28T00:11:31.712Z,38.10
2022-10-28T00:14:05.817Z,32.60
2022-10-28T00:16:37.061Z,33.38
2022-10-28T00:19:07.737Z,33.22
2022-10-28T00:21:38.558Z,28.25
2022-10-28T00:24:08.399Z,32.63
2022-10-28T00:26:39.037Z,37.53
2022-10-28T00:29:13.194Z,34.10
2022-10-28T00:31:41.281Z,33.28
2022-10-28T00:34:17.394Z,35.42
2022-10-28T00:36:47.077Z,31.80
2022-10-28T00:39:22.583Z,30.90
2022-10-28T00:42:03.742Z,35.67
2022-10-28T00:44:47.312Z,34.90
2022-10-28T00:47:31.808Z,29.10
2022-10-28T00:50:16.858Z,25.00
2022-10-28T00:52:47.516Z,30.77
2022-10-28T00:55:18.056Z,33.47
2022-10-28T00:57:46.763Z,33.00
2022-10-28T01:00:15.214Z,29.00
2022-10-28T01:02:48.725Z,30.80
2022-10-28T01:05:23.274Z,31.38
2022-10-28T01:07:53.585Z,27.52
2022-10-28T01:10:34.101Z,30.23
2022-10-28T01:13:29.761Z,27.75
2022-10-28T01:17:08.848Z,30.50
2022-10-28T01:20:25.641Z,29.13
2022-10-28T01:23:11.133Z,25.42
2022-10-28T01:26:38.254Z,25.20
2022-10-28T01:29:35.579Z,27.63
2022-10-28T01:32:10.817Z,24.42
2022-10-28T01:35:19.456Z,25.70
2022-10-28T01:37:58.869Z,23.42
2022-10-28T01:41:19.275Z,23.67
2022-10-28T01:44:01.394Z,26.80
2022-10-28T01:47:00.454Z,24.15
2022-10-28T01:50:07.081Z,28.75
2022-10-28T01:52:34.803Z,27.75
2022-10-28T01:55:36.315Z,23.35
2022-10-28T01:58:06.560Z,22.98
2022-10-28T02:00:36.176Z,26.85
2022-10-28T02:03:07.073Z,23.73
2022-10-28T02:05:46.847Z,24.83
2022-10-28T02:08:19.643Z,26.42
2022-10-28T02:11:12.053Z,26.50
2022-10-28T02:14:55.233Z,31.77
2022-10-28T02:18:18.256Z,22.75
2022-10-28T02:21:06.573Z,26.23
2022-10-28T02:24:17.904Z,27.88
2022-10-28T02:27:02.789Z,25.60
2022-10-28T02:29:49.009Z,24.80
2022-10-28T02:32:25.085Z,24.05
2022-10-28T02:34:59.518Z,27.15
2022-10-28T02:37:36.222Z,24.35
2022-10-28T02:40:12.279Z,23.30
2022-10-28T02:42:54.389Z,24.55
2022-10-28T02:45:46.744Z,26.55
2022-10-28T02:48:26.696Z,31.90
2022-10-28T02:51:11.044Z,25.83
2022-10-28T02:54:10.932Z,27.27
2022-10-28T02:57:01.462Z,25.52
2022-10-28T02:59:29.559Z,27.35
2022-10-28T03:01:56.931Z,27.23
2022-10-28T03:04:24.449Z,25.13
2022-10-28T03:06:51.796Z,26.52
2022-10-28T03:09:19.029Z,23.23
2022-10-28T03:11:46.257Z,26.77
2022-10-28T03:14:15.411Z,25.50
2022-10-28T03:16:43.087Z,27.08
2022-10-28T03:19:10.313Z,24.73
2022-10-28T03:21:37.567Z,21.02
2022-10-28T03:24:05.158Z,24.55
2022-10-28T03:26:32.378Z,24.77
2022-10-28T03:28:59.668Z,25.58
2022-10-28T03:31:26.974Z,25.73
2022-10-28T03:33:54.235Z,30.60
2022-10-28T03:36:21.474Z,26.85
2022-10-28T03:38:48.823Z,29.00
2022-10-28T03:41:16.249Z,29.75
2022-10-28T03:43:43.580Z,25.92
2022-10-28T03:46:10.861Z,27.17
2022-10-28T03:48:38.073Z,30.20
2022-10-28T03:51:05.626Z,28.70
2022-10-28T03:53:32.969Z,32.50
2022-10-28T03:56:02.807Z,28.73
2022-10-28T03:58:30.555Z,32.47
2022-10-28T04:00:58.024Z,33.67
2022-10-28T04:03:26.745Z,28.15
2022-10-28T04:05:54.733Z,31.20
2022-10-28T04:08:22.398Z,25.17
2022-10-28T04:10:49.784Z,41.33
2022-10-28T04:13:17.698Z,31.30
2022-10-28T04:15:45.065Z,33.25
2022-10-28T04:18:12.914Z,30.25
2022-10-28T04:20:40.551Z,30.75
2022-10-28T04:23:09.425Z,33.00
2022-10-28T04:25:36.611Z,28.85
2022-10-28T04:28:04.140Z,32.08
2022-10-28T04:30:31.423Z,28.80
2022-10-28T04:32:58.790Z,33.33
2022-10-28T04:35:26.394Z,36.78
2022-10-28T04:37:54.043Z,34.85
2022-10-28T04:40:21.499Z,38.20
2022-10-28T04:42:48.606Z,42.05
2022-10-28T04:45:15.961Z,41.30
2022-10-28T04:47:43.153Z,43.70
2022-10-28T04:50:10.425Z,42.65
2022-10-28T04:52:37.566Z,45.90
2022-10-28T04:55:05.425Z,39.78
2022-10-28T04:57:32.981Z,40.22
2022-10-28T05:00:00.090Z,45.80
2022-10-28T05:02:27.268Z,44.00
2022-10-28T05:04:54.520Z,39.30
2022-10-28T05:07:23.562Z,45.65
2022-10-28T05:09:50.864Z,43.33
2022-10-28T05:12:18.040Z,42.85
2022-10-28T05:14:45.962Z,43.15
2022-10-28T05:17:14.547Z,43.55
2022-10-28T05:19:45.117Z,46.72
2022-10-28T05:22:12.279Z,44.17
2022-10-28T05:24:39.555Z,42.13
2022-10-28T05:27:06.786Z,40.17
2022-10-28T05:29:33.953Z,40.30
2022-10-28T05:32:01.291Z,38.90
2022-10-28T05:34:28.547Z,40.50
2022-10-28T05:36:55.779Z,45.10
2022-10-28T05:39:22.937Z,40.97
2022-10-28T05:41:50.076Z,41.47
2022-10-28T05:44:17.216Z,40.92
2022-10-28T05:46:44.416Z,39.00
2022-10-28T05:49:11.649Z,43.47
2022-10-28T05:51:38.921Z,45.80
2022-10-28T05:54:06.353Z,42.72
2022-10-28T05:56:33.628Z,41.33
2022-10-28T05:59:00.869Z,44.50
2022-10-28T06:01:28.134Z,40.45
2022-10-28T06:03:55.389Z,42.65
2022-10-28T06:06:22.500Z,41.63
2022-10-28T06:08:49.640Z,40.65
2022-10-28T06:11:15.266Z,41.05
2022-10-28T06:13:42.425Z,39.72
2022-10-28T06:16:09.741Z,41.80
2022-10-28T06:18:37.127Z,39.08
2022-10-28T06:21:04.665Z,44.65
2022-10-28T06:23:31.886Z,39.70
2022-10-28T06:26:02.339Z,38.65
2022-10-28T06:28:30.600Z,47.35
2022-10-28T06:31:07.699Z,45.08
2022-10-28T06:33:35.093Z,44.63
2022-10-28T06:36:02.794Z,48.13
2022-10-28T06:38:30.110Z,47.92
2022-10-28T06:40:58.085Z,54.65
2022-10-28T06:43:25.810Z,57.88
2022-10-28T06:45:55.522Z,58.90
2022-10-28T06:48:24.665Z,43.38
2022-10-28T06:50:55.039Z,47.20
2022-10-28T06:53:22.683Z,40.33
2022-10-28T06:55:58.183Z,44.83
2022-10-28T06:58:26.108Z,45.75
2022-10-28T07:00:53.833Z,46.83
2022-10-28T07:03:21.980Z,44.88
2022-10-28T07:05:51.408Z,45.35
2022-10-28T07:08:18.773Z,37.88
2022-10-28T07:10:55.407Z,53.15
2022-10-28T07:13:24.302Z,42.00
2022-10-28T07:15:58.137Z,37.97
2022-10-28T07:18:29.003Z,40.72
2022-10-28T07:21:01.747Z,34.92
2022-10-28T07:23:34.141Z,30.90
2022-10-28T07:26:01.597Z,35.92
2022-10-28T07:28:28.942Z,31.50
2022-10-28T07:31:01.865Z,30.20
2022-10-28T07:33:29.249Z,29.52
2022-10-28T07:35:56.692Z,30.73
2022-10-28T07:38:24.019Z,29.92
2022-10-28T07:40:51.178Z,30.73
2022-10-28T07:43:18.391Z,27.45
2022-10-28T07:45:45.676Z,29.90
2022-10-28T07:48:13.178Z,29.25
2022-10-28T07:50:41.728Z,30.38
2022-10-28T07:53:09.040Z,31.02
2022-10-28T07:55:36.316Z,31.15
2022-10-28T07:58:03.580Z,34.10
2022-10-28T08:00:32.055Z,28.30
2022-10-28T08:02:59.274Z,30.55
2022-10-28T08:05:26.455Z,31.10
2022-10-28T08:07:53.834Z,30.23
2022-10-28T08:10:21.162Z,33.33
2022-10-28T08:12:48.366Z,34.45
2022-10-28T08:15:16.711Z,33.80
2022-10-28T08:17:43.902Z,34.60
2022-10-28T08:20:11.275Z,30.55
2022-10-28T08:22:38.417Z,33.53
2022-10-28T08:25:06.021Z,32.15
2022-10-28T08:27:33.277Z,30.40
2022-10-28T08:30:00.510Z,38.33
2022-10-28T08:32:27.828Z,31.30
2022-10-28T08:34:54.967Z,37.40
2022-10-28T08:37:22.288Z,36.40
2022-10-28T08:39:49.596Z,37.80
2022-10-28T08:42:58.896Z,31.23
2022-10-28T08:45:45.951Z,37.25
2022-10-28T08:48:35.849Z,31.40
2022-10-28T08:51:42.163Z,34.65
2022-10-28T08:54:22.912Z,33.20
2022-10-28T08:56:54.871Z,32.70
2022-10-28T08:59:35.186Z,36.88
2022-10-28T09:02:29.247Z,38.55
2022-10-28T09:05:14.858Z,34.35
2022-10-28T09:07:42.225Z,31.23
2022-10-28T09:10:17.898Z,34.95
2022-10-28T09:13:17.029Z,37.08
2022-10-28T09:16:28.696Z,38.47
2022-10-28T09:19:40.301Z,36.17
2022-10-28T09:22:22.847Z,34.78
2022-10-28T09:25:17.848Z,34.33
2022-10-28T09:28:18.854Z,35.33
2022-10-28T09:31:25.752Z,33.20
2022-10-28T09:37:14.337Z,35.22
2022-10-28T09:39:54.122Z,34.47
2022-10-28T09:45:24.071Z,34.22
2022-10-28T09:48:37.929Z,37.13
2022-10-28T09:51:05.857Z,33.55
2022-10-28T09:53:56.022Z,35.28
2022-10-28T09:56:24.787Z,36.55
2022-10-28T09:58:54.611Z,32.83
2022-10-28T10:01:22.487Z,37.58
2022-10-28T10:03:51.901Z,35.75
2022-10-28T10:06:38.855Z,32.88
2022-10-28T10:09:06.137Z,40.47
2022-10-28T10:11:47.171Z,35.58
2022-10-28T10:14:39.981Z,35.60
2022-10-28T10:17:20.001Z,43.17
2022-10-28T10:20:20.588Z,36.45
2022-10-28T10:22:49.951Z,36.50
2022-10-28T10:25:20.084Z,39.70
2022-10-28T10:28:14.771Z,46.40
2022-10-28T10:30:51.498Z,40.50
2022-10-28T10:33:36.450Z,41.70
2022-10-28T10:36:13.557Z,42.50
2022-10-28T10:39:03.466Z,40.13
2022-10-28T10:41:41.785Z,41.08
2022-10-28T10:44:32.783Z,38.75
2022-10-28T10:47:06.050Z,44.63
2022-10-28T10:49:35.715Z,46.75
2022-10-28T10:52:14.934Z,46.60
2022-10-28T10:55:01.773Z,40.42
2022-10-28T10:57:29.706Z,46.25
2022-10-28T10:59:57.967Z,39.28
2022-10-28T11:02:35.026Z,40.97
2022-10-28T11:05:09.510Z,48.40
2022-10-28T11:07:40.492Z,44.35
2022-10-28T11:10:28.444Z,51.78
2022-10-28T11:13:01.469Z,38.05
2022-10-28T11:15:31.587Z,41.90
2022-10-28T11:18:21.392Z,39.80
2022-10-28T11:21:43.780Z,47.00
2022-10-28T11:24:34.749Z,42.05
2022-10-28T11:27:57.596Z,43.67
2022-10-28T11:31:32.021Z,45.55
2022-10-28T11:34:52.677Z,45.90
2022-10-28T11:37:52.257Z,44.60
2022-10-28T11:41:00.798Z,63.22
2022-10-28T11:43:59.691Z,48.33
2022-10-28T11:47:28.186Z,39.95
2022-10-28T11:50:21.538Z,43.05
2022-10-28T11:53:30.505Z,53.13
2022-10-28T11:56:49.466Z,41.25
2022-10-28T11:59:58.980Z,41.90
2022-10-28T12:03:19.877Z,45.75
2022-10-28T12:06:17.080Z,38.45
2022-10-28T12:09:17.584Z,43.63
2022-10-28T12:12:22.091Z,45.00
2022-10-28T12:15:14.731Z,46.72
2022-10-28T12:18:11.989Z,41.00
2022-10-28T12:21:05.631Z,42.47
2022-10-28T12:23:38.219Z,43.25
2022-10-28T12:26:11.996Z,37.17
2022-10-28T12:28:55.642Z,46.55
2022-10-28T12:31:47.909Z,39.17
2022-10-28T12:34:25.077Z,44.15
2022-10-28T12:37:12.235Z,36.92
2022-10-28T12:40:07.447Z,45.40
2022-10-28T12:42:43.738Z,44.60
2022-10-28T12:45:17.783Z,48.10
2022-10-28T12:48:22.248Z,49.20
2022-10-28T12:51:10.989Z,47.97
2022-10-28T12:54:05.791Z,42.75
2022-10-28T12:56:50.692Z,42.33
2022-10-28T12:59:34.966Z,45.80
2022-10-28T13:02:05.550Z,49.97
2022-10-28T13:04:33.027Z,40.45
2022-10-28T13:07:27.646Z,41.90
2022-10-28T13:10:26.913Z,44.17
2022-10-28T13:13:57.379Z,41.67
2022-10-28T13:17:34.282Z,41.72
2022-10-28T13:20:22.747Z,37.97
2022-10-28T13:23:14.545Z,31.52
2022-10-28T13:26:04.126Z,30.25
2022-10-28T13:28:40.684Z,28.95
2022-10-28T13:31:08.960Z,27.38
2022-10-28T13:33:38.544Z,26.25
2022-10-28T13:36:28.109Z,26.50
2022-10-28T13:39:03.680Z,32.65
2022-10-28T13:41:40.895Z,27.77
2022-10-28T13:44:10.419Z,31.75
2022-10-28T13:46:59.410Z,25.02
2022-10-28T13:49:28.607Z,25.40
2022-10-28T13:52:21.292Z,27.90
2022-10-28T13:54:49.286Z,37.75
2022-10-28T13:57:35.143Z,29.98
2022-10-28T14:03:26.308Z,30.08
2022-10-28T14:06:00.801Z,31.30
2022-10-28T14:08:38.571Z,29.58
2022-10-28T14:11:22.735Z,29.25
2022-10-28T14:13:55.823Z,37.97
2022-10-28T14:16:37.796Z,33.50
2022-10-28T14:19:19.980Z,33.42
2022-10-28T14:22:08.403Z,29.33
2022-10-28T14:24:44.699Z,32.28
2022-10-28T14:27:40.511Z,28.45
2022-10-28T14:30:21.285Z,27.75
2022-10-28T14:33:01.987Z,31.33
2022-10-28T14:35:42.512Z,28.08
2022-10-28T14:38:49.831Z,29.40
2022-10-28T14:41:56.014Z,30.58
2022-10-28T14:45:07.612Z,29.75
2022-10-28T14:47:56.027Z,26.65
2022-10-28T14:50:52.527Z,23.98
2022-10-28T14:53:34.136Z,27.88
2022-10-28T14:56:10.352Z,29.85
2022-10-28T14:58:42.222Z,27.13
2022-10-28T15:01:18.768Z,26.55
2022-10-28T15:04:01.833Z,26.38
2022-10-28T15:06:42.953Z,22.33
2022-10-28T15:09:23.121Z,26.15
2022-10-28T15:12:06.335Z,23.77
2022-10-28T15:14:52.157Z,23.50
2022-10-28T15:17:29.103Z,20.50
2022-10-28T15:20:00.327Z,22.50
2022-10-28T15:22:33.195Z,19.80
2022-10-28T15:25:10.511Z,19.98
2022-10-28T15:27:42.091Z,19.25
2022-10-28T15:30:23.643Z,21.70
2022-10-28T15:32:53.020Z,15.10
2022-10-28T15:35:35.503Z,24.73
2022-10-28T15:38:29.287Z,21.63
2022-10-28T15:40:57.473Z,25.15
2022-10-28T15:43:30.720Z,18.08
2022-10-28T15:46:16.318Z,17.90
2022-10-28T15:51:19.582Z,19.52
2022-10-28T15:53:53.907Z,17.30
2022-10-28T15:56:27.883Z,19.97
2022-10-28T15:59:07.209Z,21.38
2022-10-28T16:01:39.879Z,22.60
2022-10-28T16:04:39.354Z,23.35
2022-10-28T16:07:10.124Z,23.05
2022-10-28T16:09:48.791Z,19.10
2022-10-28T16:12:21.446Z,25.92
2022-10-28T16:15:00.686Z,20.25
2022-10-28T16:17:36.210Z,23.75
2022-10-28T16:20:18.467Z,19.92
2022-10-28T16:22:47.170Z,26.77
2022-10-28T16:25:21.702Z,22.20
2022-10-28T16:27:50.715Z,26.05
2022-10-28T16:30:18.454Z,21.60
2022-10-28T16:32:49.869Z,22.90
2022-10-28T16:35:20.508Z,24.27
2022-10-28T16:37:53.725Z,22.15
2022-10-28T16:40:50.841Z,22.15
2022-10-28T16:43:20.022Z,24.95
2022-10-28T16:45:49.636Z,22.55
2022-10-28T16:48:19.366Z,22.30
2022-10-28T16:50:54.732Z,28.65
2022-10-28T16:53:22.260Z,20.23
2022-10-28T16:55:49.715Z,28.10
2022-10-28T16:58:19.569Z,23.80
2022-10-28T17:00:49.057Z,25.45
2022-10-28T17:03:16.270Z,18.98
2022-10-28T17:05:43.985Z,27.52
2022-10-28T17:08:12.187Z,27.08
2022-10-28T17:10:41.751Z,25.50
2022-10-28T17:13:14.763Z,35.38
2022-10-28T17:15:45.521Z,25.83
2022-10-28T17:18:15.025Z,30.15
2022-10-28T17:20:42.443Z,31.70
2022-10-28T17:23:09.573Z,33.75
2022-10-28T17:25:36.852Z,30.75
2022-10-28T17:28:04.430Z,33.97
2022-10-28T17:30:31.752Z,34.80
2022-10-28T17:32:59.039Z,28.40
2022-10-28T17:35:27.224Z,27.20
2022-10-28T17:37:54.564Z,32.30
2022-10-28T17:40:21.971Z,28.73
2022-10-28T17:42:49.107Z,28.30
2022-10-28T17:45:19.431Z,28.35
2022-10-28T17:47:49.712Z,25.42
2022-10-28T17:50:17.228Z,28.58
2022-10-28T17:52:44.385Z,29.60
2022-10-28T17:55:11.694Z,26.42
2022-10-28T17:57:38.886Z,30.42
2022-10-28T18:00:07.397Z,29.63
2022-10-28T18:02:40.151Z,27.55
2022-10-28T18:05:08.221Z,33.58
2022-10-28T18:07:35.488Z,30.38
2022-10-28T18:10:02.666Z,22.92
2022-10-28T18:12:29.910Z,28.65
2022-10-28T18:14:57.121Z,33.10
2022-10-28T18:17:24.300Z,31.15
2022-10-28T18:19:51.515Z,34.10
2022-10-28T18:22:18.714Z,33.08
2022-10-28T18:24:45.937Z,36.72
2022-10-28T18:27:13.073Z,36.20
2022-10-28T18:29:40.236Z,30.58
2022-10-28T18:32:07.366Z,39.55
2022-10-28T18:34:34.607Z,35.60
2022-10-28T18:37:04.062Z,43.85
2022-10-28T18:39:31.271Z,40.03
2022-10-28T18:41:58.435Z,37.67
2022-10-28T18:44:31.653Z,44.70
2022-10-28T18:46:59.312Z,41.25
2022-10-28T18:49:26.614Z,37.45
2022-10-28T18:51:53.823Z,46.63
2022-10-28T18:54:20.949Z,39.40
2022-10-28T18:56:49.166Z,41.72
2022-10-28T18:59:17.703Z,36.67
2022-10-28T19:01:46.817Z,35.08
2022-10-28T19:04:15.097Z,37.85
2022-10-28T19:06:42.511Z,33.92
2022-10-28T19:09:09.770Z,39.50
2022-10-28T19:11:36.952Z,32.57
2022-10-28T19:14:06.370Z,32.53
2022-10-28T19:16:34.668Z,34.67
2022-10-28T19:19:04.679Z,32.70
2022-10-28T19:21:32.734Z,32.05
2022-10-28T19:24:00.127Z,34.25
2022-10-28T19:26:27.884Z,32.60
2022-10-28T19:28:55.283Z,35.95
2022-10-28T19:31:26.427Z,36.50
2022-10-28T19:33:55.059Z,35.80
2022-10-28T19:36:29.479Z,40.42
2022-10-28T19:38:58.225Z,34.00
2022-10-28T19:41:30.244Z,28.08
2022-10-28T19:44:02.847Z,36.13
2022-10-28T19:46:35.575Z,34.45
2022-10-28T19:49:06.267Z,41.13
2022-10-28T19:51:38.857Z,26.88
2022-10-28T19:54:12.411Z,30.05
2022-10-28T19:56:40.610Z,30.33
2022-10-28T19:59:07.851Z,33.03
2022-10-28T20:01:38.684Z,32.53
2022-10-28T20:04:08.502Z,30.95
2022-10-28T20:06:39.095Z,32.80
2022-10-28T20:09:07.215Z,31.25
2022-10-28T20:11:38.070Z,29.17
2022-10-28T20:14:12.457Z,30.77
2022-10-28T20:16:42.697Z,32.60
2022-10-28T20:19:10.584Z,40.97
2022-10-28T20:21:38.889Z,34.10
2022-10-28T20:24:08.010Z,33.72
2022-10-28T20:26:38.467Z,30.70
2022-10-28T20:29:09.932Z,29.85
2022-10-28T20:31:38.902Z,29.42
2022-10-28T20:34:06.786Z,34.92
2022-10-28T20:36:40.483Z,27.50
2022-10-28T20:39:20.818Z,28.50
2022-10-28T20:41:51.175Z,29.10
2022-10-28T20:44:18.614Z,33.60
2022-10-28T20:46:47.776Z,31.10
2022-10-28T20:49:15.850Z,33.38
2022-10-28T20:51:43.186Z,37.33
2022-10-28T20:54:10.463Z,31.65
2022-10-28T20:56:40.344Z,29.85
2022-10-28T20:59:08.101Z,32.47
2022-10-28T21:01:39.567Z,30.90
2022-10-28T21:04:10.981Z,31.77
2022-10-28T21:06:39.545Z,37.65
2022-10-28T21:09:07.771Z,24.08
2022-10-28T21:11:35.190Z,33.53
2022-10-28T21:14:02.639Z,27.33
2022-10-28T21:16:30.947Z,26.65
2022-10-28T21:19:01.688Z,22.55
2022-10-28T21:21:30.007Z,28.13
2022-10-28T21:23:57.263Z,26.88
2022-10-28T21:26:25.484Z,27.13
2022-10-28T21:28:53.345Z,23.35
2022-10-28T21:31:21.962Z,24.88
2022-10-28T21:36:22.792Z,24.77
2022-10-28T21:38:55.671Z,22.90
2022-10-28T21:41:24.930Z,20.73
2022-10-28T21:43:54.232Z,28.25
2022-10-28T21:46:23.172Z,21.40
2022-10-28T21:48:50.488Z,22.15
2022-10-28T21:51:18.667Z,24.60
2022-10-28T21:53:45.996Z,23.23
2022-10-28T21:56:18.547Z,23.98
2022-10-28T21:58:49.063Z,22.15
2022-10-28T22:01:23.576Z,27.27
2022-10-28T22:03:54.505Z,27.40
2022-10-28T22:06:22.470Z,20.65
2022-10-28T22:08:52.601Z,27.45
2022-10-28T22:11:23.586Z,24.55
2022-10-28T22:14:01.100Z,26.05
2022-10-28T22:16:31.794Z,23.88
2022-10-28T22:19:02.851Z,23.15
2022-10-28T22:21:33.706Z,24.15
2022-10-28T22:24:01.091Z,25.42
2022-10-28T22:26:30.544Z,29.02
2022-10-28T22:28:57.888Z,25.83
2022-10-28T22:31:33.466Z,33.03
2022-10-28T22:36:30.183Z,28.33
2022-10-28T22:38:57.776Z,29.70
2022-10-28T22:41:33.883Z,33.58
2022-10-28T22:44:02.952Z,23.17
2022-10-28T22:46:33.713Z,28.17
2022-10-28T22:49:00.900Z,25.17
2022-10-28T22:51:28.101Z,25.17
2022-10-28T22:53:55.380Z,19.35
2022-10-28T22:56:26.135Z,22.98
2022-10-28T22:58:58.191Z,20.42
2022-10-28T23:01:28.338Z,24.73
2022-10-28T23:03:56.430Z,24.73
2022-10-28T23:06:27.154Z,20.67
2022-10-28T23:08:55.111Z,24.10
2022-10-28T23:11:23.275Z,21.63
2022-10-28T23:13:52.787Z,18.95
2022-10-28T23:16:21.595Z,19.95
2022-10-28T23:18:49.284Z,21.90
2022-10-28T23:21:27.667Z,19.95
2022-10-28T23:23:59.973Z,21.88
2022-10-28T23:26:29.832Z,17.00
2022-10-28T23:28:59.805Z,19.08
2022-10-28T23:31:28.323Z,18.75
2022-10-28T23:33:56.432Z,21.23
2022-10-28T23:36:23.722Z,22.42
2022-10-28T23:38:51.017Z,18.98
2022-10-28T23:41:19.346Z,17.15
2022-10-28T23:43:48.596Z,26.45
2022-10-28T23:46:16.203Z,23.90
2022-10-28T23:48:43.466Z,26.27
2022-10-28T23:51:10.754Z,30.00
2022-10-28T23:53:38.030Z,28.80
2022-10-28T23:56:06.165Z,27.25
2022-10-28T23:58:33.286Z,23.33
